Time;durP1;ratioP1;P1;durP2;ratioP2;P2;SDS_P1;SDS_P2;PMS_P1;PMS_P2;Temp;Humidity;BMP_temperature;BMP_pressure;BME280_temperature;BME280_humidity;BME280_pressure;Samples;Min_cycle;Max_cycle;Signal;HPM_P1;HPM_P2
2023/07/23 00:01:42;;;;;;;;;;;;;;;22.13;55.91;100403.94;5087450;28;1216;-31
2023/07/23 00:04:08;;;;;;;;;;;;;;;24.31;49.23;100408.75;5096206;28;1102;-33
2023/07/23 00:06:33;;;;;;;;;;;;;;;21.80;57.19;100420.63;5097451;28;1031;-33
2023/07/23 00:08:59;;;;;;;;;;;;;;;24.20;49.59;100428.78;5097843;28;1080;-30
2023/07/23 00:11:24;;;;;;;;;;;;;;;21.87;56.12;100431.56;5087410;28;1905;-33
2023/07/23 00:13:50;;;;;;;;;;;;;;;24.14;48.63;100432.13;5088481;28;1091;-33
2023/07/23 00:16:15;;;;;;;;;;;;;;;21.31;57.91;100431.66;5088385;28;911;-33
2023/07/23 00:18:41;;;;;;;;;;;;;;;23.91;48.82;100435.50;5084834;28;1211;-31
2023/07/23 00:21:06;;;;;;;;;;;;;;;21.32;57.84;100449.41;5098665;28;1022;-33
2023/07/23 00:23:32;;;;;;;;;;;;;;;24.05;48.17;100455.47;5084370;28;1222;-33
2023/07/23 00:25:57;;;;;;;;;;;;;;;21.10;56.88;100471.09;5098337;28;1061;-32
2023/07/23 00:28:23;;;;;;;;;;;;;;;23.62;49.59;100471.75;5097146;28;1238;-31
2023/07/23 00:30:48;;;;;;;;;;;;;;;21.19;56.59;100480.03;5098236;28;1976;-33
2023/07/23 00:33:14;;;;;;;;;;;;;;;23.86;48.44;100481.69;5080596;28;1058;-33
2023/07/23 00:35:39;;;;;;;;;;;;;;;21.32;56.33;100487.69;5077937;28;1190;-32
2023/07/23 00:38:05;;;;;;;;;;;;;;;23.73;48.46;100490.22;5077566;28;1212;-33
2023/07/23 00:40:31;;;;;;;;;;;;;;;21.12;56.36;100490.50;5087053;28;1235;-33
2023/07/23 00:42:56;;;;;;;;;;;;;;;23.73;48.55;100504.50;5097399;28;999;-32
2023/07/23 00:45:24;;;;;;;;;;;;;;;21.19;56.79;100505.97;5086173;28;1183;-34
2023/07/23 00:47:49;;;;;;;;;;;;;;;23.80;48.95;100523.50;5091137;28;1186;-32
2023/07/23 00:50:15;;;;;;;;;;;;;;;21.63;53.18;100530.19;5086650;28;1909;-33
2023/07/23 00:52:40;;;;;;;;;;;;;;;23.16;51.37;100548.94;5095646;28;1074;-31
2023/07/23 00:55:06;;;;;;;;;;;;;;;21.58;52.60;100547.69;5096464;28;1214;-31
2023/07/23 00:57:32;;;;;;;;;;;;;;;23.09;50.30;100556.78;5092602;28;1023;-31
2023/07/23 00:59:57;;;;;;;;;;;;;;;21.48;52.43;100561.13;5087919;28;1134;-33
2023/07/23 01:02:26;;;;;;;;;;;;;;;23.08;48.83;100581.97;5084638;28;1209;-32
2023/07/23 01:04:52;;;;;;;;;;;;;;;24.09;45.06;100580.41;5088220;28;1349;-31
2023/07/23 01:07:17;;;;;;;;;;;;;;;22.13;52.89;100578.91;5095621;28;1065;-32
2023/07/23 01:09:43;;;;;;;;;;;;;;;24.32;45.42;100590.56;5086521;28;1031;-30
2023/07/23 01:12:08;;;;;;;;;;;;;;;21.93;50.42;100588.94;5092635;28;1910;-32
2023/07/23 01:14:34;;;;;;;;;;;;;;;22.95;49.82;100601.16;5087082;28;1221;-34
2023/07/23 01:17:00;;;;;;;;;;;;;;;21.71;50.47;100596.38;5092370;28;1111;-30
2023/07/23 01:19:26;;;;;;;;;;;;;;;22.85;49.44;100593.22;5095896;28;1147;-30
2023/07/23 01:22:04;;;;;;;;;;;;;;;24.52;47.09;100577.63;5097202;28;1109;-34
2023/07/23 01:24:29;;;;;;;;;;;;;;;21.13;53.37;100553.72;5078596;28;1126;-33
2023/07/23 01:26:55;;;;;;;;;;;;;;;23.37;47.77;100531.59;5091716;28;1161;-29
2023/07/23 01:29:20;;;;;;;;;;;;;;;24.30;47.72;100502.03;5088335;28;1435;-33
2023/07/23 01:31:46;;;;;;;;;;;;;;;21.37;55.51;100490.75;5083326;28;1910;-32
2023/07/23 01:34:11;;;;;;;;;;;;;;;23.94;46.78;100478.16;5085142;28;1138;-31
2023/07/23 01:36:37;;;;;;;;;;;;;;;22.89;47.81;100446.22;5093704;28;1067;-30
2023/07/23 01:39:03;;;;;;;;;;;;;;;22.07;53.81;100369.75;5083777;28;1126;-29
2023/07/23 01:41:28;;;;;;;;;;;;;;;24.40;46.77;100378.16;5093840;28;1434;-32
2023/07/23 01:43:54;;;;;;;;;;;;;;;21.64;57.07;100390.00;5084876;28;1058;-32
2023/07/23 01:46:19;;;;;;;;;;;;;;;24.19;47.54;100389.50;5095525;28;1169;-32
2023/07/23 01:48:45;;;;;;;;;;;;;;;22.97;48.32;100413.25;5096657;28;1137;-33
2023/07/23 01:51:11;;;;;;;;;;;;;;;22.61;52.94;100422.31;5091511;28;1906;-32
2023/07/23 01:53:37;;;;;;;;;;;;;;;24.47;49.55;100442.84;5082455;28;1217;-33
2023/07/23 01:56:03;;;;;;;;;;;;;;;21.20;54.19;100444.28;5078395;28;1171;-32
2023/07/23 01:58:28;;;;;;;;;;;;;;;22.79;51.15;100446.34;5095769;28;1788;-34
2023/07/23 02:00:58;;;;;;;;;;;;;;;24.42;49.50;100462.16;5096275;28;1554;-31
2023/07/23 02:03:23;;;;;;;;;;;;;;;21.12;55.77;100455.72;5095495;28;1507;-32
2023/07/23 02:05:55;;;;;;;;;;;;;;;23.54;49.05;100453.81;5083071;28;1170;-34
2023/07/23 02:08:21;;;;;;;;;;;;;;;24.55;47.71;100456.25;5083067;28;1102;-32
2023/07/23 02:10:47;;;;;;;;;;;;;;;21.57;55.83;100452.34;5090224;28;2002;-33
2023/07/23 02:13:12;;;;;;;;;;;;;;;24.20;46.87;100471.78;5094416;28;1086;-31
2023/07/23 02:15:38;;;;;;;;;;;;;;;22.67;48.33;100477.97;5095573;28;1419;-32
2023/07/23 02:18:03;;;;;;;;;;;;;;;22.16;53.00;100485.81;5090748;28;1218;-32
2023/07/23 02:20:29;;;;;;;;;;;;;;;24.45;45.41;100495.94;5082601;28;1149;-33
2023/07/23 02:22:54;;;;;;;;;;;;;;;21.90;50.47;100490.16;5088950;28;942;-32
2023/07/23 02:25:20;;;;;;;;;;;;;;;22.62;50.93;100496.38;5094088;28;1127;-30
2023/07/23 02:27:45;;;;;;;;;;;;;;;24.42;47.69;100496.28;5096327;28;1206;-32
2023/07/23 02:30:11;;;;;;;;;;;;;;;21.42;52.02;100498.34;5085189;28;1972;-32
2023/07/23 02:32:37;;;;;;;;;;;;;;;23.26;48.94;100513.06;5100044;28;1113;-32
2023/07/23 02:35:03;;;;;;;;;;;;;;;24.39;49.97;100523.53;5086626;28;1099;-31
2023/07/23 02:37:29;;;;;;;;;;;;;;;21.16;56.13;100526.66;5088221;28;1162;-33
2023/07/23 02:39:54;;;;;;;;;;;;;;;23.58;48.58;100536.53;5093627;28;1095;-32
2023/07/23 02:42:20;;;;;;;;;;;;;;;24.53;48.09;100535.41;5090655;28;1217;-31
2023/07/23 02:44:45;;;;;;;;;;;;;;;21.35;56.47;100548.13;5085300;28;1218;-31
2023/07/23 02:47:11;;;;;;;;;;;;;;;23.93;47.18;100547.16;5088460;28;1122;-33
2023/07/23 02:49:36;;;;;;;;;;;;;;;23.67;45.53;100564.22;5093277;28;1024;-31
2023/07/23 02:52:02;;;;;;;;;;;;;;;22.26;52.17;100562.44;5078184;28;1985;-33
2023/07/23 02:54:28;;;;;;;;;;;;;;;24.39;45.60;100561.16;5091775;28;1220;-30
2023/07/23 02:56:53;;;;;;;;;;;;;;;21.79;50.18;100555.47;5087380;28;1164;-33
2023/07/23 02:59:19;;;;;;;;;;;;;;;22.67;49.93;100558.41;5084354;28;1126;-31
2023/07/23 03:01:44;;;;;;;;;;;;;;;24.39;47.24;100563.84;5094552;28;1352;-32
2023/07/23 03:04:10;;;;;;;;;;;;;;;21.29;51.37;100547.72;5101758;28;1285;-33
2023/07/23 03:06:35;;;;;;;;;;;;;;;23.02;50.35;100560.28;5087481;28;1105;-31
2023/07/23 03:09:01;;;;;;;;;;;;;;;24.26;49.22;100572.41;5098205;28;1135;-32
2023/07/23 03:11:26;;;;;;;;;;;;;;;24.48;52.00;100594.25;5100037;28;1914;-22
2023/07/23 03:13:52;;;;;;;;;;;;;;;24.30;54.19;100606.00;5086142;28;1061;-24
2023/07/23 03:16:17;;;;;;;;;;;;;;;23.96;54.71;100619.38;5087533;28;1110;-22
2023/07/23 03:18:43;;;;;;;;;;;;;;;24.01;55.22;100631.47;5091180;28;1306;-24
2023/07/23 03:21:08;;;;;;;;;;;;;;;24.04;54.92;100636.53;5099463;28;1099;-24
2023/07/23 03:23:35;;;;;;;;;;;;;;;23.81;55.60;100642.50;5098205;28;1295;-22
2023/07/23 03:26:01;;;;;;;;;;;;;;;24.17;55.90;100636.91;5099096;28;1069;-24
2023/07/23 03:28:26;;;;;;;;;;;;;;;25.01;53.75;100618.91;5080594;28;1205;-24
2023/07/23 03:30:52;;;;;;;;;;;;;;;25.46;52.97;100601.44;5090595;28;1910;-22
2023/07/23 03:33:17;;;;;;;;;;;;;;;25.44;53.52;100588.97;5089639;28;1250;-24
2023/07/23 03:35:43;;;;;;;;;;;;;;;25.34;53.80;100574.06;5087536;28;1161;-23
2023/07/23 03:38:08;;;;;;;;;;;;;;;24.61;52.19;100548.03;5094880;28;2230;-23
2023/07/23 03:40:34;;;;;;;;;;;;;;;24.02;52.48;100523.84;5097280;28;1102;-22
2023/07/23 03:42:59;;;;;;;;;;;;;;;23.94;51.89;100521.16;5090241;28;1129;-23
2023/07/23 03:45:25;;;;;;;;;;;;;;;23.88;51.95;100525.34;5078931;28;1150;-24
2023/07/23 03:47:50;;;;;;;;;;;;;;;23.90;52.04;100544.81;5096815;28;1182;-22
2023/07/23 03:50:15;;;;;;;;;;;;;;;23.75;53.90;100568.81;5098466;28;1981;-25
2023/07/23 03:52:41;;;;;;;;;;;;;;;23.98;54.87;100578.91;5081102;28;1085;-22
2023/07/23 03:55:07;;;;;;;;;;;;;;;24.37;54.75;100582.00;5089021;28;1150;-32
2023/07/23 03:57:32;;;;;;;;;;;;;;;25.66;51.40;100594.63;5094922;28;1043;-32
2023/07/23 03:59:58;;;;;;;;;;;;;;;26.04;51.55;100588.47;5086716;28;1157;-30
2023/07/23 04:02:23;;;;;;;;;;;;;;;26.38;50.80;100597.19;5083898;28;1258;-34
2023/07/23 04:04:49;;;;;;;;;;;;;;;26.53;50.00;100609.88;5097344;28;1131;-31
2023/07/23 04:07:14;;;;;;;;;;;;;;;26.45;49.83;100599.16;5094591;28;1114;-32
2023/07/23 04:09:40;;;;;;;;;;;;;;;26.34;51.87;100590.47;5098291;28;1061;-32
2023/07/23 04:12:06;;;;;;;;;;;;;;;26.24;52.17;100582.59;5085103;28;1914;-33
2023/07/23 04:14:31;;;;;;;;;;;;;;;26.36;51.46;100558.78;5088365;28;1194;-33
2023/07/23 04:16:57;;;;;;;;;;;;;;;26.58;52.06;100555.34;5090013;28;1054;-31
2023/07/23 04:19:22;;;;;;;;;;;;;;;26.61;52.96;100555.84;5079292;28;887;-33
2023/07/23 04:21:48;;;;;;;;;;;;;;;26.46;54.40;100555.81;5076794;28;1351;-31
2023/07/23 04:24:14;;;;;;;;;;;;;;;26.85;53.44;100553.06;5088211;28;1078;-31
2023/07/23 04:26:39;;;;;;;;;;;;;;;27.03;53.23;100552.72;5080051;28;1082;-34
2023/07/23 04:29:05;;;;;;;;;;;;;;;27.13;52.62;100558.66;5087517;28;1163;-30
2023/07/23 04:31:31;;;;;;;;;;;;;;;27.07;54.38;100572.06;5096435;28;1964;-30
2023/07/23 04:33:57;;;;;;;;;;;;;;;27.11;55.60;100565.28;5097087;28;1550;-32
2023/07/23 04:36:23;;;;;;;;;;;;;;;27.18;55.68;100554.56;5094653;28;1065;-31
2023/07/23 04:38:49;;;;;;;;;;;;;;;26.99;57.10;100560.31;5077427;28;1086;-30
2023/07/23 04:41:14;;;;;;;;;;;;;;;26.28;58.59;100556.97;5077746;28;1131;-31
2023/07/23 04:43:40;;;;;;;;;;;;;;;26.07;59.58;100556.81;5089953;28;937;-32
2023/07/23 04:46:06;;;;;;;;;;;;;;;26.19;59.19;100554.53;5094254;28;1030;-30
2023/07/23 04:48:34;;;;;;;;;;;;;;;25.68;61.58;100557.56;5087564;28;1113;-34
2023/07/23 04:51:00;;;;;;;;;;;;;;;26.02;60.72;100557.34;5097505;28;1906;-31
2023/07/23 04:53:26;;;;;;;;;;;;;;;26.14;61.57;100555.88;5097369;28;1110;-32
2023/07/23 04:55:54;;;;;;;;;;;;;;;25.56;62.69;100550.88;5096259;28;1165;-32
2023/07/23 04:58:20;;;;;;;;;;;;;;;26.16;59.99;100559.25;5086697;28;1249;-34
2023/07/23 05:00:46;;;;;;;;;;;;;;;27.10;55.90;100555.50;5091717;28;1049;-36
2023/07/23 05:03:11;;;;;;;;;;;;;;;27.65;53.74;100560.50;5077069;28;1260;-35
2023/07/23 05:05:41;;;;;;;;;;;;;;;27.46;54.69;100556.56;5095385;28;1082;-35
2023/07/23 05:08:06;;;;;;;;;;;;;;;27.23;51.94;100547.56;5086777;28;916;-35
2023/07/23 05:10:32;;;;;;;;;;;;;;;27.61;50.78;100538.44;5094004;28;1974;-36
2023/07/23 05:12:57;;;;;;;;;;;;;;;27.82;51.36;100547.63;5097817;28;1210;-33
2023/07/23 05:15:22;;;;;;;;;;;;;;;28.11;50.96;100550.41;5097246;28;1157;-34
2023/07/23 05:17:48;;;;;;;;;;;;;;;28.21;50.93;100542.75;5097611;28;1022;-35
2023/07/23 05:20:15;;;;;;;;;;;;;;;28.24;49.86;100553.19;5094159;28;1244;-33
2023/07/23 05:22:41;;;;;;;;;;;;;;;27.76;46.40;100551.09;5097430;28;1502;-37
2023/07/23 05:25:07;;;;;;;;;;;;;;;27.90;43.82;100560.19;5097010;28;1429;-39
2023/07/23 05:27:33;;;;;;;;;;;;;;;27.73;42.15;100564.97;5085436;28;1028;-37
2023/07/23 05:29:59;;;;;;;;;;;;;;;27.94;43.23;100553.38;5094681;28;1114;-38
2023/07/23 05:32:24;;;;;;;;;;;;;;;28.14;43.59;100551.84;5096547;28;1909;-38
2023/07/23 05:34:51;;;;;;;;;;;;;;;28.18;43.67;100551.28;5092206;28;1110;-38
2023/07/23 05:37:16;;;;;;;;;;;;;;;28.17;43.52;100546.06;5087482;28;1183;-38
2023/07/23 05:39:42;;;;;;;;;;;;;;;28.41;43.47;100549.41;5091577;28;1093;-38
2023/07/23 05:42:07;;;;;;;;;;;;;;;28.36;44.71;100544.59;5087338;28;1103;-38
2023/07/23 05:44:33;;;;;;;;;;;;;;;28.51;44.63;100536.34;5091639;28;1022;-39
2023/07/23 05:46:59;;;;;;;;;;;;;;;28.33;44.55;100536.84;5075998;28;1205;-38
2023/07/23 05:49:24;;;;;;;;;;;;;;;28.28;44.58;100534.69;5088952;28;1039;-39
2023/07/23 05:51:50;;;;;;;;;;;;;;;28.12;44.33;100541.25;5075755;28;1980;-38
2023/07/23 05:54:16;;;;;;;;;;;;;;;28.01;43.04;100547.19;5090075;28;1047;-38
2023/07/23 05:56:41;;;;;;;;;;;;;;;27.92;41.72;100547.31;5082142;28;899;-38
2023/07/23 05:59:07;;;;;;;;;;;;;;;28.05;42.82;100552.00;5089696;28;1067;-38
2023/07/23 06:01:32;;;;;;;;;;;;;;;28.04;43.20;100554.91;5081345;28;1023;-39
2023/07/23 06:03:58;;;;;;;;;;;;;;;28.51;44.18;100552.56;5082533;28;1133;-37
2023/07/23 06:06:23;;;;;;;;;;;;;;;28.60;45.48;100553.28;5094149;28;1049;-36
2023/07/23 06:08:49;;;;;;;;;;;;;;;28.58;46.20;100547.22;5079700;28;1009;-38
2023/07/23 06:11:14;;;;;;;;;;;;;;;28.64;46.65;100543.75;5085644;28;1902;-37
2023/07/23 06:13:40;;;;;;;;;;;;;;;28.68;47.30;100549.56;5080194;28;1003;-37
2023/07/23 06:16:05;;;;;;;;;;;;;;;28.66;48.46;100555.19;5084568;28;1527;-38
2023/07/23 06:18:35;;;;;;;;;;;;;;;28.84;48.38;100548.44;5081398;28;1031;-39
2023/07/23 06:21:00;;;;;;;;;;;;;;;28.88;48.41;100555.09;5084685;28;1246;-38
2023/07/23 06:23:26;;;;;;;;;;;;;;;28.88;48.37;100554.28;5091439;28;1111;-38
2023/07/23 06:25:55;;;;;;;;;;;;;;;28.89;48.43;100553.25;5094687;28;1035;-39
2023/07/23 06:28:20;;;;;;;;;;;;;;;29.04;47.72;100543.16;5081273;28;1166;-39
2023/07/23 06:30:46;;;;;;;;;;;;;;;29.12;48.07;100549.41;5084453;28;1906;-38
2023/07/23 06:33:11;;;;;;;;;;;;;;;29.07;48.01;100537.31;5078430;28;886;-39
2023/07/23 06:35:37;;;;;;;;;;;;;;;29.25;47.90;100551.34;5094892;28;1018;-39
2023/07/23 06:38:03;;;;;;;;;;;;;;;29.40;47.76;100541.19;5077643;28;1086;-41
2023/07/23 06:40:28;;;;;;;;;;;;;;;29.56;47.20;100534.56;5084964;28;1086;-41
2023/07/23 06:42:54;;;;;;;;;;;;;;;29.61;46.83;100536.69;5095163;28;1118;-41
2023/07/23 06:45:19;;;;;;;;;;;;;;;29.64;46.65;100543.56;5094729;28;969;-41
2023/07/23 06:47:45;;;;;;;;;;;;;;;29.54;47.15;100542.06;5081130;28;1136;-40
2023/07/23 06:50:10;;;;;;;;;;;;;;;29.41;47.38;100542.84;5084558;28;1117;-39
2023/07/23 06:52:36;;;;;;;;;;;;;;;29.37;47.53;100538.03;5090906;28;1973;-41
2023/07/23 06:55:01;;;;;;;;;;;;;;;29.63;46.40;100540.03;5084842;28;1036;-39
2023/07/23 06:57:27;;;;;;;;;;;;;;;29.50;46.00;100545.38;5088094;28;897;-40
2023/07/23 06:59:52;;;;;;;;;;;;;;;29.69;44.90;100554.63;5074726;28;1031;-39
2023/07/23 07:02:18;;;;;;;;;;;;;;;29.74;46.43;100557.56;5074872;28;1075;-38
2023/07/23 07:04:43;;;;;;;;;;;;;;;29.59;47.03;100557.75;5084446;28;1075;-39
2023/07/23 07:07:09;;;;;;;;;;;;;;;29.82;46.01;100556.53;5078090;28;1043;-39
2023/07/23 07:09:34;;;;;;;;;;;;;;;29.66;45.86;100564.00;5074624;28;943;-39
2023/07/23 07:12:00;;;;;;;;;;;;;;;29.77;45.03;100550.88;5087564;28;1906;-39
2023/07/23 07:14:25;;;;;;;;;;;;;;;29.93;44.21;100561.34;5083862;28;1113;-39
2023/07/23 07:16:51;;;;;;;;;;;;;;;29.99;43.57;100562.41;5094993;28;959;-39
2023/07/23 07:19:17;;;;;;;;;;;;;;;30.04;42.22;100542.78;5089395;28;1129;-38
2023/07/23 07:21:42;;;;;;;;;;;;;;;29.98;42.61;100557.19;5096486;28;876;-40
2023/07/23 07:24:08;;;;;;;;;;;;;;;30.15;42.62;100560.31;5089006;28;1101;-39
2023/07/23 07:26:33;;;;;;;;;;;;;;;30.03;43.28;100554.69;5093045;28;1028;-39
2023/07/23 07:28:59;;;;;;;;;;;;;;;29.96;42.60;100562.81;5088866;28;1082;-39
2023/07/23 07:31:24;;;;;;;;;;;;;;;30.00;42.66;100563.22;5079599;28;1961;-39
2023/07/23 07:33:50;;;;;;;;;;;;;;;30.32;42.68;100566.19;5087546;28;1066;-41
2023/07/23 07:36:16;;;;;;;;;;;;;;;30.23;42.74;100570.97;5093731;28;1015;-40
2023/07/23 07:38:41;;;;;;;;;;;;;;;30.39;42.38;100571.63;5088509;28;1205;-41
2023/07/23 07:41:07;;;;;;;;;;;;;;;30.35;43.20;100567.63;5077447;28;1170;-40
2023/07/23 07:43:32;;;;;;;;;;;;;;;30.42;43.17;100563.88;5091379;28;1082;-41
2023/07/23 07:45:59;;;;;;;;;;;;;;;30.59;42.84;100571.59;5085576;28;1303;-39
2023/07/23 07:48:26;;;;;;;;;;;;;;;28.16;47.83;100568.72;5097307;28;1194;-40
2023/07/23 07:50:58;;;;;;;;;;;;;;;23.71;51.77;100559.38;5084210;28;1979;-40
2023/07/23 07:53:24;;;;;;;;;;;;;;;22.25;52.97;100559.91;5084911;28;1110;-40
2023/07/23 07:55:50;;;;;;;;;;;;;;;22.19;56.95;100563.22;5096689;28;1018;-40
2023/07/23 07:58:16;;;;;;;;;;;;;;;22.14;57.46;100558.31;5078445;28;1213;-40
2023/07/23 08:00:42;;;;;;;;;;;;;;;22.06;57.52;100568.94;5091918;28;1157;-40
2023/07/23 08:03:08;;;;;;;;;;;;;;;21.95;57.66;100572.72;5085313;28;1069;-40
2023/07/23 08:05:34;;;;;;;;;;;;;;;21.71;58.12;100566.06;5082886;28;1110;-40
2023/07/23 08:08:00;;;;;;;;;;;;;;;21.61;58.43;100572.34;5088304;28;1019;-40
2023/07/23 08:10:25;;;;;;;;;;;;;;;21.48;58.66;100561.13;5083891;28;1921;-40
2023/07/23 08:12:51;;;;;;;;;;;;;;;21.35;58.81;100577.53;5096119;28;1284;-40
2023/07/23 08:15:17;;;;;;;;;;;;;;;21.34;59.33;100573.16;5085726;28;1268;-40
2023/07/23 08:17:42;;;;;;;;;;;;;;;21.29;59.80;100579.81;5097601;28;1189;-39
2023/07/23 08:20:08;;;;;;;;;;;;;;;21.25;60.18;100574.91;5097405;28;1113;-40
2023/07/23 08:22:34;;;;;;;;;;;;;;;21.28;60.55;100578.16;5081921;28;1029;-40
2023/07/23 08:24:59;;;;;;;;;;;;;;;22.87;58.20;100583.16;5082641;28;1094;-40
2023/07/23 08:27:25;;;;;;;;;;;;;;;25.28;50.64;100572.91;5078190;28;1190;-40
2023/07/23 08:29:50;;;;;;;;;;;;;;;21.56;57.96;100579.13;5086739;28;1059;-40
2023/07/23 08:32:17;;;;;;;;;;;;;;;21.19;59.61;100580.88;5092886;28;1971;-40
2023/07/23 08:34:43;;;;;;;;;;;;;;;21.05;60.17;100575.00;5096396;28;1003;-40
2023/07/23 08:37:10;;;;;;;;;;;;;;;20.91;61.07;100578.94;5083581;28;1011;-40
2023/07/23 08:39:35;;;;;;;;;;;;;;;20.92;61.38;100577.94;5087599;28;1062;-40
2023/07/23 08:42:07;;;;;;;;;;;;;;;20.95;61.18;100577.72;5089766;28;1143;-40
2023/07/23 08:44:51;;;;;;;;;;;;;;;23.67;55.10;100584.91;5081899;28;1067;-40
2023/07/23 08:47:16;;;;;;;;;;;;;;;22.22;57.15;100579.81;5083553;28;1194;-40
2023/07/23 08:49:42;;;;;;;;;;;;;;;21.13;60.31;100587.63;5096111;28;1051;-40
2023/07/23 08:52:14;;;;;;;;;;;;;;;20.76;61.01;100589.25;5076741;28;1910;-40
2023/07/23 08:54:40;;;;;;;;;;;;;;;20.75;61.73;100576.88;5090957;28;1241;-40
2023/07/23 08:57:06;;;;;;;;;;;;;;;20.63;61.59;100592.22;5089759;28;936;-40
2023/07/23 08:59:31;;;;;;;;;;;;;;;20.60;61.74;100580.00;5090363;28;1065;-40
2023/07/23 09:01:57;;;;;;;;;;;;;;;22.96;56.72;100588.59;5097102;28;1158;-40
2023/07/23 09:04:22;;;;;;;;;;;;;;;23.16;54.61;100597.25;5097014;28;1086;-40
2023/07/23 09:06:48;;;;;;;;;;;;;;;21.07;60.46;100590.91;5076769;28;1094;-40
2023/07/23 09:09:13;;;;;;;;;;;;;;;20.60;61.72;100603.22;5084793;28;1226;-40
2023/07/23 09:11:39;;;;;;;;;;;;;;;20.50;62.08;100605.91;5096260;28;1983;-40
2023/07/23 09:14:08;;;;;;;;;;;;;;;20.47;62.26;100609.66;5095596;28;1170;-40
2023/07/23 09:16:38;;;;;;;;;;;;;;;20.42;62.37;100618.13;5096257;28;1033;-40
2023/07/23 09:19:04;;;;;;;;;;;;;;;22.36;59.21;100617.78;5096975;28;1177;-40
2023/07/23 09:21:29;;;;;;;;;;;;;;;23.29;54.47;100615.59;5096485;28;1063;-40
2023/07/23 09:23:56;;;;;;;;;;;;;;;20.68;59.57;100620.22;5088659;28;1030;-40
2023/07/23 09:26:22;;;;;;;;;;;;;;;20.18;60.59;100624.75;5076225;28;1217;-40
2023/07/23 09:28:49;;;;;;;;;;;;;;;20.19;61.77;100626.41;5084556;28;1051;-40
2023/07/23 09:31:15;;;;;;;;;;;;;;;20.11;62.27;100626.25;5096090;28;1906;-40
2023/07/23 09:33:41;;;;;;;;;;;;;;;20.09;62.30;100625.56;5094582;28;1572;-40
2023/07/23 09:36:06;;;;;;;;;;;;;;;20.07;63.02;100638.19;5096179;28;1129;-40
2023/07/23 09:38:33;;;;;;;;;;;;;;;20.64;64.89;100637.53;5088392;28;1225;-40
2023/07/23 09:40:59;;;;;;;;;;;;;;;23.75;53.44;100645.84;5091377;28;1161;-40
2023/07/23 09:43:24;;;;;;;;;;;;;;;21.33;60.08;100641.06;5087943;28;1190;-40
2023/07/23 09:45:50;;;;;;;;;;;;;;;20.66;61.47;100637.38;5085032;28;1196;-40
2023/07/23 09:48:16;;;;;;;;;;;;;;;20.37;62.15;100644.41;5075757;28;1189;-39
2023/07/23 09:50:42;;;;;;;;;;;;;;;20.35;62.52;100641.06;5077654;28;1911;-40
2023/07/23 09:53:10;;;;;;;;;;;;;;;20.29;62.47;100631.75;5096421;28;1132;-40
2023/07/23 09:55:39;;;;;;;;;;;;;;;20.95;65.44;100630.34;5096287;28;1034;-40
2023/07/23 09:58:05;;;;;;;;;;;;;;;24.35;52.76;100644.00;5086857;28;939;-40
2023/07/23 10:00:31;;;;;;;;;;;;;;;20.98;59.56;100632.72;5089309;28;1055;-40
2023/07/23 10:02:56;;;;;;;;;;;;;;;21.40;58.64;100634.97;5084110;28;1111;-41
2023/07/23 10:05:22;;;;;;;;;;;;;;;24.65;50.56;100641.66;5081130;28;1138;-40
2023/07/23 10:07:47;;;;;;;;;;;;;;;25.85;47.08;100645.53;5085670;28;1154;-38
2023/07/23 10:10:13;;;;;;;;;;;;;;;26.35;46.22;100654.19;5088581;28;1110;-39
2023/07/23 10:12:39;;;;;;;;;;;;;;;26.82;45.32;100651.44;5082713;28;1985;-39
2023/07/23 10:15:05;;;;;;;;;;;;;;;27.06;44.06;100654.91;5081329;28;1070;-38
2023/07/23 10:17:31;;;;;;;;;;;;;;;27.24;43.42;100646.44;5095070;28;1197;-38
2023/07/23 10:19:56;;;;;;;;;;;;;;;27.34;43.37;100639.94;5093784;28;1166;-37
2023/07/23 10:22:22;;;;;;;;;;;;;;;27.41;43.62;100654.38;5078776;28;892;-38
2023/07/23 10:24:50;;;;;;;;;;;;;;;27.31;43.90;100643.03;5088179;28;1071;-38
2023/07/23 10:27:16;;;;;;;;;;;;;;;27.36;43.70;100648.72;5082842;28;1046;-38
2023/07/23 10:30:01;;;;;;;;;;;;;;;27.40;43.67;100652.69;5093212;28;1015;-38
2023/07/23 10:32:27;;;;;;;;;;;;;;;27.70;42.85;100652.69;5085505;28;2009;-38
2023/07/23 10:34:54;;;;;;;;;;;;;;;27.88;42.51;100651.44;5094439;28;1225;-38
2023/07/23 10:37:19;;;;;;;;;;;;;;;28.00;42.02;100651.78;5094653;28;1117;-38
2023/07/23 10:39:45;;;;;;;;;;;;;;;27.25;41.53;100550.94;5091187;28;1061;-37
2023/07/23 10:42:29;;;;;;;;;;;;;;;27.85;41.62;100649.13;5074812;28;1131;-37
2023/07/23 10:45:17;;;;;;;;;;;;;;;28.04;40.88;100660.34;5090481;28;1031;-38
2023/07/23 10:47:49;;;;;;;;;;;;;;;28.11;41.02;100653.97;5090927;28;1134;-38
2023/07/23 10:50:15;;;;;;;;;;;;;;;28.03;41.42;100661.38;5084563;28;1078;-38
2023/07/23 10:52:44;;;;;;;;;;;;;;;28.08;40.86;100661.63;5096707;28;1910;-38
2023/07/23 10:55:09;;;;;;;;;;;;;;;28.18;40.96;100666.72;5098468;28;1065;-38
2023/07/23 10:57:39;;;;;;;;;;;;;;;28.17;40.83;100671.31;5097989;28;998;-38
2023/07/23 11:00:17;;;;;;;;;;;;;;;28.26;40.53;100672.00;5088220;28;1058;-38
2023/07/23 11:02:47;;;;;;;;;;;;;;;28.47;40.34;100671.22;5078079;28;1123;-38
2023/07/23 11:05:12;;;;;;;;;;;;;;;28.62;39.61;100681.13;5090712;28;1142;-40
2023/07/23 11:07:38;;;;;;;;;;;;;;;28.72;39.52;100680.78;5077866;28;1224;-39
2023/07/23 11:10:20;;;;;;;;;;;;;;;28.70;39.42;100662.03;5095210;28;1148;-38
2023/07/23 11:12:45;;;;;;;;;;;;;;;28.90;39.08;100657.78;5089494;28;1890;-37
2023/07/23 11:15:14;;;;;;;;;;;;;;;28.92;39.75;100661.97;5096064;28;1368;-39
2023/07/23 11:17:40;;;;;;;;;;;;;;;29.02;38.76;100669.78;5082202;28;1249;-39
2023/07/23 11:20:05;;;;;;;;;;;;;;;29.11;38.59;100667.78;5077229;28;1344;-38
2023/07/23 11:22:31;;;;;;;;;;;;;;;29.20;39.20;100668.44;5080772;28;1316;-38
2023/07/23 11:24:56;;;;;;;;;;;;;;;29.31;39.57;100661.63;5078315;28;1256;-38
2023/07/23 11:27:22;;;;;;;;;;;;;;;29.20;39.43;100663.00;5078240;28;1197;-37
2023/07/23 11:29:48;;;;;;;;;;;;;;;29.27;38.95;100663.91;5082896;28;1041;-38
2023/07/23 11:32:13;;;;;;;;;;;;;;;29.36;39.39;100655.59;5086795;28;1980;-38
2023/07/23 11:34:39;;;;;;;;;;;;;;;29.42;39.04;100665.63;5098288;28;909;-39
2023/07/23 11:37:06;;;;;;;;;;;;;;;29.31;39.50;100667.03;5095956;28;1089;-37
2023/07/23 11:39:31;;;;;;;;;;;;;;;29.41;39.18;100675.63;5087040;28;1246;-37
2023/07/23 11:41:57;;;;;;;;;;;;;;;29.48;38.97;100675.66;5098515;28;1159;-37
2023/07/23 11:44:22;;;;;;;;;;;;;;;29.43;38.52;100678.13;5099018;28;1181;-37
2023/07/23 11:46:48;;;;;;;;;;;;;;;29.56;38.57;100680.09;5095659;28;1125;-37
2023/07/23 11:49:13;;;;;;;;;;;;;;;29.55;38.54;100672.97;5078597;28;1142;-37
2023/07/23 11:51:39;;;;;;;;;;;;;;;29.49;37.77;100674.63;5094046;28;1975;-37
2023/07/23 11:54:07;;;;;;;;;;;;;;;29.51;36.74;100675.25;5098640;28;1104;-37
2023/07/23 11:56:51;;;;;;;;;;;;;;;29.63;36.81;100680.16;5083703;28;1224;-37
2023/07/23 11:59:16;;;;;;;;;;;;;;;29.65;36.60;100688.91;5095469;28;1308;-37
2023/07/23 12:01:42;;;;;;;;;;;;;;;29.63;38.02;100685.56;5098315;28;1157;-37
2023/07/23 12:04:08;;;;;;;;;;;;;;;29.85;37.93;100677.28;5083274;28;1260;-37
2023/07/23 12:06:34;;;;;;;;;;;;;;;29.86;38.44;100685.25;5088522;28;1089;-37
2023/07/23 12:09:00;;;;;;;;;;;;;;;29.92;38.55;100698.00;5095083;28;1169;-37
2023/07/23 12:11:27;;;;;;;;;;;;;;;30.04;39.00;100702.81;5084303;28;1906;-37
2023/07/23 12:13:53;;;;;;;;;;;;;;;30.10;39.28;100693.84;5089289;28;1253;-37
2023/07/23 12:16:31;;;;;;;;;;;;;;;30.24;39.22;100696.63;5082599;28;1205;-37
2023/07/23 12:18:59;;;;;;;;;;;;;;;30.26;39.28;100694.56;5098625;28;1315;-37
2023/07/23 12:21:25;;;;;;;;;;;;;;;30.29;39.21;100694.13;5098303;28;1312;-37
2023/07/23 12:23:50;;;;;;;;;;;;;;;30.34;38.95;100683.50;5092154;28;1155;-37
2023/07/23 12:26:16;;;;;;;;;;;;;;;30.26;39.04;100686.41;5096836;28;1091;-37
2023/07/23 12:28:41;;;;;;;;;;;;;;;30.16;38.33;100690.31;5097366;28;1217;-38
2023/07/23 12:31:07;;;;;;;;;;;;;;;30.10;38.02;100683.00;5097922;28;1971;-38
2023/07/23 12:33:32;;;;;;;;;;;;;;;29.84;36.99;100684.59;5097342;28;1295;-38
2023/07/23 12:35:58;;;;;;;;;;;;;;;29.58;36.40;100684.25;5091587;28;974;-38
2023/07/23 12:38:23;;;;;;;;;;;;;;;29.37;34.94;100676.22;5091233;28;1363;-38
2023/07/23 12:40:49;;;;;;;;;;;;;;;29.30;36.43;100684.31;5077479;28;1281;-39
2023/07/23 12:43:14;;;;;;;;;;;;;;;29.44;35.44;100704.22;5087822;28;1086;-38